sensor_id;sensor_type;location;lat;lon;timestamp;pressure;altitude;pressure_sealevel;temperature;humidity
64076;BME280;50327;51.328;12.324;2023-03-13T00:01:30;52943.47;;;-144.47;100.00
64076;BME280;50327;51.328;12.324;2023-03-13T00:03:56;52947.47;;;-144.47;100.00
64076;BME280;50327;51.328;12.324;2023-03-13T00:06:23;52949.44;;;-144.47;100.00
64076;BME280;50327;51.328;12.324;2023-03-13T00:08:49;52935.53;;;-144.47;100.00
64076;BME280;50327;51.328;12.324;2023-03-13T00:11:15;52963.34;;;-144.47;100.00
64076;BME280;50327;51.328;12.324;2023-03-13T00:13:41;52943.47;;;-144.47;100.00
64076;BME280;50327;51.328;12.324;2023-03-13T00:16:09;52979.22;;;-144.47;100.00
64076;BME280;50327;51.328;12.324;2023-03-13T00:18:35;52961.34;;;-144.47;100.00
64076;BME280;50327;51.328;12.324;2023-03-13T00:21:03;52961.34;;;-144.47;100.00
64076;BME280;50327;51.328;12.324;2023-03-13T00:23:29;52953.41;;;-144.47;100.00
64076;BME280;50327;51.328;12.324;2023-03-13T00:26:00;52937.53;;;-144.47;100.00
64076;BME280;50327;51.328;12.324;2023-03-13T00:28:30;52971.28;;;-144.47;100.00
64076;BME280;50327;51.328;12.324;2023-03-13T00:31:06;52913.69;;;-144.47;100.00
64076;BME280;50327;51.328;12.324;2023-03-13T00:33:33;52943.47;;;-144.47;100.00
64076;BME280;50327;51.328;12.324;2023-03-13T00:36:00;52939.50;;;-144.47;100.00
64076;BME280;50327;51.328;12.324;2023-03-13T00:38:27;52947.47;;;-144.47;100.00
64076;BME280;50327;51.328;12.324;2023-03-13T00:41:03;52961.34;;;-144.47;100.00
64076;BME280;50327;51.328;12.324;2023-03-13T00:43:30;52943.47;;;-144.47;100.00
64076;BME280;50327;51.328;12.324;2023-03-13T00:45:55;52935.53;;;-144.47;100.00
64076;BME280;50327;51.328;12.324;2023-03-13T00:48:21;52945.47;;;-144.47;100.00
64076;BME280;50327;51.328;12.324;2023-03-13T00:50:47;52951.44;;;-144.47;100.00
64076;BME280;50327;51.328;12.324;2023-03-13T00:53:12;52913.69;;;-144.47;100.00
64076;BME280;50327;51.328;12.324;2023-03-13T00:55:38;52935.53;;;-144.47;100.00
64076;BME280;50327;51.328;12.324;2023-03-13T00:58:03;52941.50;;;-144.47;99.98
64076;BME280;50327;51.328;12.324;2023-03-13T01:00:29;52957.38;;;-144.47;99.55
64076;BME280;50327;51.328;12.324;2023-03-13T01:02:54;52947.47;;;-144.47;99.15
64076;BME280;50327;51.328;12.324;2023-03-13T01:05:19;52939.50;;;-144.47;98.83
64076;BME280;50327;51.328;12.324;2023-03-13T01:07:45;52945.47;;;-144.47;98.70
64076;BME280;50327;51.328;12.324;2023-03-13T01:10:10;52953.41;;;-144.47;98.59
64076;BME280;50327;51.328;12.324;2023-03-13T01:12:36;52933.56;;;-144.47;98.42
64076;BME280;50327;51.328;12.324;2023-03-13T01:15:01;52925.59;;;-144.47;98.37
64076;BME280;50327;51.328;12.324;2023-03-13T01:17:26;52945.47;;;-144.47;98.41
64076;BME280;50327;51.328;12.324;2023-03-13T01:19:57;52919.66;;;-144.47;98.00
64076;BME280;50327;51.328;12.324;2023-03-13T01:22:22;52919.66;;;-144.47;97.92
64076;BME280;50327;51.328;12.324;2023-03-13T01:24:48;52965.34;;;-144.47;97.91
64076;BME280;50327;51.328;12.324;2023-03-13T01:27:17;52919.66;;;-144.47;97.61
64076;BME280;50327;51.328;12.324;2023-03-13T01:29:42;52923.63;;;-144.47;97.57
64076;BME280;50327;51.328;12.324;2023-03-13T01:32:08;52921.63;;;-144.47;97.05
64076;BME280;50327;51.328;12.324;2023-03-13T01:34:33;52939.50;;;-144.47;96.47
64076;BME280;50327;51.328;12.324;2023-03-13T01:36:59;52931.56;;;-144.47;96.04
64076;BME280;50327;51.328;12.324;2023-03-13T01:39:24;52945.47;;;-144.47;95.82
64076;BME280;50327;51.328;12.324;2023-03-13T01:41:49;52929.59;;;-144.47;95.44
64076;BME280;50327;51.328;12.324;2023-03-13T01:44:23;52919.66;;;-144.47;95.07
64076;BME280;50327;51.328;12.324;2023-03-13T01:46:49;52903.75;;;-144.47;94.49
64076;BME280;50327;51.328;12.324;2023-03-13T01:49:33;52911.69;;;-144.47;94.12
64076;BME280;50327;51.328;12.324;2023-03-13T01:52:06;52929.59;;;-144.47;93.95
64076;BME280;50327;51.328;12.324;2023-03-13T01:57:08;52927.59;;;-144.47;93.89
64076;BME280;50327;51.328;12.324;2023-03-13T01:59:43;52909.72;;;-144.47;93.49
64076;BME280;50327;51.328;12.324;2023-03-13T02:02:10;52931.56;;;-144.47;93.38
64076;BME280;50327;51.328;12.324;2023-03-13T02:04:38;52935.53;;;-144.47;93.64
64076;BME280;50327;51.328;12.324;2023-03-13T02:07:09;52943.47;;;-144.47;93.41
64076;BME280;50327;51.328;12.324;2023-03-13T02:09:38;52943.47;;;-144.47;93.58
64076;BME280;50327;51.328;12.324;2023-03-13T02:12:18;52919.66;;;-144.47;93.63
64076;BME280;50327;51.328;12.324;2023-03-13T02:14:49;52921.63;;;-144.47;93.28
64076;BME280;50327;51.328;12.324;2023-03-13T02:17:15;52899.78;;;-144.47;93.26
64076;BME280;50327;51.328;12.324;2023-03-13T02:19:42;52941.50;;;-144.47;93.06
64076;BME280;50327;51.328;12.324;2023-03-13T02:22:17;52933.56;;;-144.47;92.96
64076;BME280;50327;51.328;12.324;2023-03-13T02:27:20;52905.75;;;-144.47;93.34
64076;BME280;50327;51.328;12.324;2023-03-13T02:29:45;52921.63;;;-144.47;93.51
64076;BME280;50327;51.328;12.324;2023-03-13T02:32:12;52947.47;;;-144.47;93.90
64076;BME280;50327;51.328;12.324;2023-03-13T02:34:39;52943.47;;;-144.47;93.93
64076;BME280;50327;51.328;12.324;2023-03-13T02:37:06;52933.56;;;-144.47;94.03
64076;BME280;50327;51.328;12.324;2023-03-13T02:39:35;52935.53;;;-144.47;93.94
64076;BME280;50327;51.328;12.324;2023-03-13T02:42:02;52931.56;;;-144.47;93.70
64076;BME280;50327;51.328;12.324;2023-03-13T02:44:28;52905.75;;;-144.47;93.78
64076;BME280;50327;51.328;12.324;2023-03-13T02:46:53;52951.44;;;-144.47;94.05
64076;BME280;50327;51.328;12.324;2023-03-13T02:51:47;52959.38;;;-144.47;93.74
64076;BME280;50327;51.328;12.324;2023-03-13T02:54:17;52883.91;;;-144.47;93.83
64076;BME280;50327;51.328;12.324;2023-03-13T02:56:48;52939.50;;;-144.47;93.70
64076;BME280;50327;51.328;12.324;2023-03-13T02:59:15;52907.72;;;-144.47;93.64
64076;BME280;50327;51.328;12.324;2023-03-13T03:01:40;52939.50;;;-144.47;93.69
64076;BME280;50327;51.328;12.324;2023-03-13T03:04:06;52931.56;;;-144.47;93.63
64076;BME280;50327;51.328;12.324;2023-03-13T03:06:31;52917.66;;;-144.47;93.40
64076;BME280;50327;51.328;12.324;2023-03-13T03:08:57;52905.75;;;-144.47;93.37
64076;BME280;50327;51.328;12.324;2023-03-13T03:11:22;52917.66;;;-144.47;93.12
64076;BME280;50327;51.328;12.324;2023-03-13T03:13:48;52909.72;;;-144.47;93.10
64076;BME280;50327;51.328;12.324;2023-03-13T03:16:14;52931.56;;;-144.47;93.01
64076;BME280;50327;51.328;12.324;2023-03-13T03:18:42;52899.78;;;-144.47;93.15
64076;BME280;50327;51.328;12.324;2023-03-13T03:21:08;52905.75;;;-144.47;93.05
64076;BME280;50327;51.328;12.324;2023-03-13T03:23:34;52923.63;;;-144.47;93.26
64076;BME280;50327;51.328;12.324;2023-03-13T03:26:00;52917.66;;;-144.47;93.06
64076;BME280;50327;51.328;12.324;2023-03-13T03:28:26;52931.56;;;-144.47;93.00
64076;BME280;50327;51.328;12.324;2023-03-13T03:30:52;52937.53;;;-144.47;92.96
64076;BME280;50327;51.328;12.324;2023-03-13T03:33:19;52917.66;;;-144.47;92.71
64076;BME280;50327;51.328;12.324;2023-03-13T03:35:45;52917.66;;;-144.47;92.46
64076;BME280;50327;51.328;12.324;2023-03-13T03:38:10;52917.66;;;-144.47;92.29
64076;BME280;50327;51.328;12.324;2023-03-13T03:40:36;52919.66;;;-144.47;92.53
64076;BME280;50327;51.328;12.324;2023-03-13T03:43:01;52925.59;;;-144.47;92.48
64076;BME280;50327;51.328;12.324;2023-03-13T03:45:26;52927.59;;;-144.47;92.31
64076;BME280;50327;51.328;12.324;2023-03-13T03:47:52;52921.63;;;-144.47;92.13
64076;BME280;50327;51.328;12.324;2023-03-13T03:50:17;52927.59;;;-144.47;91.94
64076;BME280;50327;51.328;12.324;2023-03-13T03:52:43;52891.84;;;-144.47;91.74
64076;BME280;50327;51.328;12.324;2023-03-13T03:55:08;52913.69;;;-144.47;91.63
64076;BME280;50327;51.328;12.324;2023-03-13T03:57:34;52927.59;;;-144.47;91.05
64076;BME280;50327;51.328;12.324;2023-03-13T03:59:59;52905.75;;;-144.47;91.18
64076;BME280;50327;51.328;12.324;2023-03-13T04:02:24;52923.63;;;-144.47;91.21
64076;BME280;50327;51.328;12.324;2023-03-13T04:04:50;52905.75;;;-144.47;91.32
64076;BME280;50327;51.328;12.324;2023-03-13T04:07:15;52927.59;;;-144.47;91.27
64076;BME280;50327;51.328;12.324;2023-03-13T04:09:40;52897.81;;;-144.47;91.13
64076;BME280;50327;51.328;12.324;2023-03-13T04:12:06;52919.66;;;-144.47;91.32
64076;BME280;50327;51.328;12.324;2023-03-13T04:14:32;52915.69;;;-144.47;91.50
64076;BME280;50327;51.328;12.324;2023-03-13T04:16:57;52931.56;;;-144.47;91.54
64076;BME280;50327;51.328;12.324;2023-03-13T04:19:22;52923.63;;;-144.47;91.70
64076;BME280;50327;51.328;12.324;2023-03-13T04:21:48;52919.66;;;-144.47;91.97
64076;BME280;50327;51.328;12.324;2023-03-13T04:24:13;52941.50;;;-144.47;92.22
64076;BME280;50327;51.328;12.324;2023-03-13T04:26:39;52903.75;;;-144.47;92.18
64076;BME280;50327;51.328;12.324;2023-03-13T04:29:04;52919.66;;;-144.47;92.34
64076;BME280;50327;51.328;12.324;2023-03-13T04:31:31;52923.63;;;-144.47;92.65
64076;BME280;50327;51.328;12.324;2023-03-13T04:33:57;52923.63;;;-144.47;92.81
64076;BME280;50327;51.328;12.324;2023-03-13T04:36:22;52903.75;;;-144.47;93.07
64076;BME280;50327;51.328;12.324;2023-03-13T04:38:48;52899.78;;;-144.47;93.16
64076;BME280;50327;51.328;12.324;2023-03-13T04:41:13;52897.81;;;-144.47;93.17
64076;BME280;50327;51.328;12.324;2023-03-13T04:43:38;52945.47;;;-144.47;93.61
64076;BME280;50327;51.328;12.324;2023-03-13T04:46:04;52899.78;;;-144.47;93.80
64076;BME280;50327;51.328;12.324;2023-03-13T04:48:29;52937.53;;;-144.47;93.93
64076;BME280;50327;51.328;12.324;2023-03-13T04:50:55;52927.59;;;-144.47;94.10
64076;BME280;50327;51.328;12.324;2023-03-13T04:53:20;52915.69;;;-144.47;94.25
64076;BME280;50327;51.328;12.324;2023-03-13T04:55:46;52957.38;;;-144.47;94.14
64076;BME280;50327;51.328;12.324;2023-03-13T04:58:12;52909.72;;;-144.47;94.44
64076;BME280;50327;51.328;12.324;2023-03-13T05:00:40;52933.56;;;-144.47;94.30
64076;BME280;50327;51.328;12.324;2023-03-13T05:03:06;52911.69;;;-144.47;94.00
64076;BME280;50327;51.328;12.324;2023-03-13T05:05:33;52923.63;;;-144.47;94.13
64076;BME280;50327;51.328;12.324;2023-03-13T05:07:59;52903.75;;;-144.47;94.43
64076;BME280;50327;51.328;12.324;2023-03-13T05:10:24;52899.78;;;-144.47;94.21
64076;BME280;50327;51.328;12.324;2023-03-13T05:12:50;52925.59;;;-144.47;94.05
64076;BME280;50327;51.328;12.324;2023-03-13T05:15:15;52941.50;;;-144.47;94.10
64076;BME280;50327;51.328;12.324;2023-03-13T05:17:40;52905.75;;;-144.47;94.25
64076;BME280;50327;51.328;12.324;2023-03-13T05:20:06;52939.50;;;-144.47;94.41
64076;BME280;50327;51.328;12.324;2023-03-13T05:22:35;52923.63;;;-144.47;94.40
64076;BME280;50327;51.328;12.324;2023-03-13T05:25:00;52929.59;;;-144.47;94.62
64076;BME280;50327;51.328;12.324;2023-03-13T05:27:26;52941.50;;;-144.47;94.60
64076;BME280;50327;51.328;12.324;2023-03-13T05:29:51;52927.59;;;-144.47;94.58
64076;BME280;50327;51.328;12.324;2023-03-13T05:32:16;52921.63;;;-144.47;94.49
64076;BME280;50327;51.328;12.324;2023-03-13T05:34:42;52945.47;;;-144.47;94.75
64076;BME280;50327;51.328;12.324;2023-03-13T05:37:07;52907.72;;;-144.47;94.52
64076;BME280;50327;51.328;12.324;2023-03-13T05:39:32;52895.81;;;-144.47;94.35
64076;BME280;50327;51.328;12.324;2023-03-13T05:41:58;52899.78;;;-144.47;94.32
64076;BME280;50327;51.328;12.324;2023-03-13T05:44:23;52885.88;;;-144.47;94.14
64076;BME280;50327;51.328;12.324;2023-03-13T05:46:48;52915.69;;;-144.47;94.00
64076;BME280;50327;51.328;12.324;2023-03-13T05:49:14;52905.75;;;-144.47;93.66
64076;BME280;50327;51.328;12.324;2023-03-13T05:51:39;52885.88;;;-144.47;93.86
64076;BME280;50327;51.328;12.324;2023-03-13T05:54:05;52913.69;;;-144.47;93.88
64076;BME280;50327;51.328;12.324;2023-03-13T05:56:30;52919.66;;;-144.47;93.66
64076;BME280;50327;51.328;12.324;2023-03-13T05:58:55;52919.66;;;-144.47;93.66
64076;BME280;50327;51.328;12.324;2023-03-13T06:01:21;52881.91;;;-144.47;93.39
64076;BME280;50327;51.328;12.324;2023-03-13T06:03:46;52905.75;;;-144.47;93.43
64076;BME280;50327;51.328;12.324;2023-03-13T06:06:12;52911.69;;;-144.47;93.57
64076;BME280;50327;51.328;12.324;2023-03-13T06:08:39;52901.78;;;-144.47;93.64
64076;BME280;50327;51.328;12.324;2023-03-13T06:11:05;52901.78;;;-144.47;94.20
64076;BME280;50327;51.328;12.324;2023-03-13T06:13:30;52899.78;;;-144.47;94.64
64076;BME280;50327;51.328;12.324;2023-03-13T06:15:57;52915.69;;;-144.47;94.78
64076;BME280;50327;51.328;12.324;2023-03-13T06:18:22;52870.00;;;-144.47;95.30
64076;BME280;50327;51.328;12.324;2023-03-13T06:20:49;52907.72;;;-144.47;95.55
64076;BME280;50327;51.328;12.324;2023-03-13T06:23:15;52909.72;;;-144.47;96.18
64076;BME280;50327;51.328;12.324;2023-03-13T06:25:40;52901.78;;;-144.47;96.56
64076;BME280;50327;51.328;12.324;2023-03-13T06:28:06;52877.94;;;-144.47;97.09
64076;BME280;50327;51.328;12.324;2023-03-13T06:30:31;52915.69;;;-144.47;96.64
64076;BME280;50327;51.328;12.324;2023-03-13T06:32:57;52903.75;;;-144.47;96.74
64076;BME280;50327;51.328;12.324;2023-03-13T06:35:22;52915.69;;;-144.47;96.79
64076;BME280;50327;51.328;12.324;2023-03-13T06:37:48;52925.59;;;-144.47;96.69
64076;BME280;50327;51.328;12.324;2023-03-13T06:40:14;52907.72;;;-144.47;96.73
64076;BME280;50327;51.328;12.324;2023-03-13T06:42:39;52899.78;;;-144.47;96.55
64076;BME280;50327;51.328;12.324;2023-03-13T06:45:05;52887.88;;;-144.47;96.62
64076;BME280;50327;51.328;12.324;2023-03-13T06:47:31;52889.84;;;-144.47;96.63
64076;BME280;50327;51.328;12.324;2023-03-13T06:49:57;52871.97;;;-144.47;96.67
64076;BME280;50327;51.328;12.324;2023-03-13T06:52:22;52871.97;;;-144.47;96.51
64076;BME280;50327;51.328;12.324;2023-03-13T06:54:48;52929.59;;;-144.47;95.83
64076;BME280;50327;51.328;12.324;2023-03-13T06:57:13;52895.81;;;-144.47;95.92
64076;BME280;50327;51.328;12.324;2023-03-13T06:59:38;52891.84;;;-144.47;95.82
64076;BME280;50327;51.328;12.324;2023-03-13T07:02:04;52915.69;;;-144.47;95.60
64076;BME280;50327;51.328;12.324;2023-03-13T07:04:29;52891.84;;;-144.47;94.72
64076;BME280;50327;51.328;12.324;2023-03-13T07:06:55;52864.03;;;-144.47;94.49
64076;BME280;50327;51.328;12.324;2023-03-13T07:09:20;52885.88;;;-144.47;94.66
64076;BME280;50327;51.328;12.324;2023-03-13T07:11:45;52903.75;;;-144.47;94.35
64076;BME280;50327;51.328;12.324;2023-03-13T07:14:11;52907.72;;;-144.47;93.75
64076;BME280;50327;51.328;12.324;2023-03-13T07:16:37;52891.84;;;-144.47;93.53
64076;BME280;50327;51.328;12.324;2023-03-13T07:19:02;52887.88;;;-144.47;93.49
64076;BME280;50327;51.328;12.324;2023-03-13T07:21:28;52885.88;;;-144.47;93.05
64076;BME280;50327;51.328;12.324;2023-03-13T07:23:53;52893.81;;;-144.47;93.13
64076;BME280;50327;51.328;12.324;2023-03-13T07:26:19;52889.84;;;-144.47;93.23
64076;BME280;50327;51.328;12.324;2023-03-13T07:28:44;52887.88;;;-144.47;93.02
64076;BME280;50327;51.328;12.324;2023-03-13T07:31:14;52897.81;;;-144.47;92.76
64076;BME280;50327;51.328;12.324;2023-03-13T07:33:40;52875.94;;;-144.47;92.74
64076;BME280;50327;51.328;12.324;2023-03-13T07:36:06;52868.00;;;-144.47;92.31
64076;BME280;50327;51.328;12.324;2023-03-13T07:38:32;52889.84;;;-144.47;91.82
64076;BME280;50327;51.328;12.324;2023-03-13T07:40:58;52881.91;;;-144.47;91.70
64076;BME280;50327;51.328;12.324;2023-03-13T07:43:24;52860.06;;;-144.47;91.20
64076;BME280;50327;51.328;12.324;2023-03-13T07:45:58;52899.78;;;-144.47;90.93
64076;BME280;50327;51.328;12.324;2023-03-13T07:48:28;52856.09;;;-144.47;91.23
64076;BME280;50327;51.328;12.324;2023-03-13T07:50:54;52850.13;;;-144.47;91.02
64076;BME280;50327;51.328;12.324;2023-03-13T07:53:20;52860.06;;;-144.47;90.83
64076;BME280;50327;51.328;12.324;2023-03-13T07:55:57;52866.03;;;-144.47;90.75
64076;BME280;50327;51.328;12.324;2023-03-13T07:58:24;52858.06;;;-144.47;90.63
64076;BME280;50327;51.328;12.324;2023-03-13T08:00:50;52864.03;;;-144.47;90.21
64076;BME280;50327;51.328;12.324;2023-03-13T08:03:16;52834.25;;;-144.47;90.03
64076;BME280;50327;51.328;12.324;2023-03-13T08:05:42;52854.09;;;-144.47;90.24
64076;BME280;50327;51.328;12.324;2023-03-13T08:08:07;52875.94;;;-144.47;89.76
64076;BME280;50327;51.328;12.324;2023-03-13T08:10:33;52881.91;;;-144.47;89.62
64076;BME280;50327;51.328;12.324;2023-03-13T08:12:58;52862.06;;;-144.47;89.89
64076;BME280;50327;51.328;12.324;2023-03-13T08:15:24;52858.06;;;-144.47;90.03
64076;BME280;50327;51.328;12.324;2023-03-13T08:17:53;52858.06;;;-144.47;90.04
64076;BME280;50327;51.328;12.324;2023-03-13T08:20:19;52856.09;;;-144.47;90.38
64076;BME280;50327;51.328;12.324;2023-03-13T08:22:44;52887.88;;;-144.47;90.70
64076;BME280;50327;51.328;12.324;2023-03-13T08:25:14;52860.06;;;-144.47;90.20
64076;BME280;50327;51.328;12.324;2023-03-13T08:27:40;52860.06;;;-144.47;90.33
64076;BME280;50327;51.328;12.324;2023-03-13T08:30:10;52860.06;;;-144.47;90.60
64076;BME280;50327;51.328;12.324;2023-03-13T08:32:35;52883.91;;;-144.47;90.85
64076;BME280;50327;51.328;12.324;2023-03-13T08:35:02;52844.19;;;-144.47;90.99
64076;BME280;50327;51.328;12.324;2023-03-13T08:37:27;52871.97;;;-144.47;91.56
64076;BME280;50327;51.328;12.324;2023-03-13T08:39:53;52883.91;;;-144.47;91.20
64076;BME280;50327;51.328;12.324;2023-03-13T08:42:21;52830.28;;;-144.47;91.23
64076;BME280;50327;51.328;12.324;2023-03-13T08:44:46;52848.16;;;-144.47;91.59
64076;BME280;50327;51.328;12.324;2023-03-13T08:47:12;52881.91;;;-144.47;91.37
64076;BME280;50327;51.328;12.324;2023-03-13T08:49:37;52873.97;;;-144.47;91.22
64076;BME280;50327;51.328;12.324;2023-03-13T08:52:06;52868.00;;;-144.47;90.80
64076;BME280;50327;51.328;12.324;2023-03-13T08:54:34;52840.19;;;-144.47;90.72
64076;BME280;50327;51.328;12.324;2023-03-13T08:57:00;52862.06;;;-144.47;90.70
64076;BME280;50327;51.328;12.324;2023-03-13T08:59:26;52879.94;;;-144.47;90.43
64076;BME280;50327;51.328;12.324;2023-03-13T09:01:51;52858.06;;;-144.47;90.52
64076;BME280;50327;51.328;12.324;2023-03-13T09:04:17;52875.94;;;-144.47;90.52
64076;BME280;50327;51.328;12.324;2023-03-13T09:06:43;52875.94;;;-144.47;90.61
64076;BME280;50327;51.328;12.324;2023-03-13T09:09:09;52846.16;;;-144.47;90.30
64076;BME280;50327;51.328;12.324;2023-03-13T09:11:36;52868.00;;;-144.47;90.52
64076;BME280;50327;51.328;12.324;2023-03-13T09:14:04;52844.19;;;-144.47;90.53
64076;BME280;50327;51.328;12.324;2023-03-13T09:16:31;52852.13;;;-144.47;90.37
64076;BME280;50327;51.328;12.324;2023-03-13T09:18:57;52877.94;;;-144.47;90.60
64076;BME280;50327;51.328;12.324;2023-03-13T09:21:34;52852.13;;;-144.47;90.57
64076;BME280;50327;51.328;12.324;2023-03-13T09:24:00;52873.97;;;-144.47;90.46
64076;BME280;50327;51.328;12.324;2023-03-13T09:26:26;52856.09;;;-144.47;90.14
64076;BME280;50327;51.328;12.324;2023-03-13T09:28:52;52860.06;;;-144.47;89.98
64076;BME280;50327;51.328;12.324;2023-03-13T09:31:29;52842.19;;;-144.47;89.40
64076;BME280;50327;51.328;12.324;2023-03-13T09:33:55;52826.31;;;-144.47;89.23
64076;BME280;50327;51.328;12.324;2023-03-13T09:36:22;52873.97;;;-144.47;88.97
64076;BME280;50327;51.328;12.324;2023-03-13T09:38:52;52840.19;;;-144.47;88.21
64076;BME280;50327;51.328;12.324;2023-03-13T09:43:54;52860.06;;;-144.47;87.50
64076;BME280;50327;51.328;12.324;2023-03-13T09:48:59;52842.19;;;-144.47;87.47
64076;BME280;50327;51.328;12.324;2023-03-13T09:51:29;52868.00;;;-144.47;87.47
64076;BME280;50327;51.328;12.324;2023-03-13T09:54:18;52856.09;;;-144.47;87.72
64076;BME280;50327;51.328;12.324;2023-03-13T09:57:04;52818.34;;;-144.47;87.75
64076;BME280;50327;51.328;12.324;2023-03-13T09:59:43;52820.34;;;-144.47;87.98
64076;BME280;50327;51.328;12.324;2023-03-13T10:02:35;52842.19;;;-144.47;88.01
64076;BME280;50327;51.328;12.324;2023-03-13T10:07:39;52856.09;;;-144.47;87.83
64076;BME280;50327;51.328;12.324;2023-03-13T10:10:12;52866.03;;;-144.47;87.65
64076;BME280;50327;51.328;12.324;2023-03-13T10:12:43;52846.16;;;-144.47;87.65
64076;BME280;50327;51.328;12.324;2023-03-13T10:18:15;52858.06;;;-144.47;87.78
64076;BME280;50327;51.328;12.324;2023-03-13T10:20:42;52838.22;;;-144.47;87.69
64076;BME280;50327;51.328;12.324;2023-03-13T10:23:15;52850.13;;;-144.47;87.64
64076;BME280;50327;51.328;12.324;2023-03-13T10:25:43;52848.16;;;-144.47;87.39
64076;BME280;50327;51.328;12.324;2023-03-13T10:28:11;52818.34;;;-144.47;87.40
64076;BME280;50327;51.328;12.324;2023-03-13T10:30:37;52846.16;;;-144.47;87.52
64076;BME280;50327;51.328;12.324;2023-03-13T10:35:39;52812.41;;;-144.47;86.90
64076;BME280;50327;51.328;12.324;2023-03-13T10:38:10;52822.31;;;-144.47;86.91
64076;BME280;50327;51.328;12.324;2023-03-13T10:40:36;52836.22;;;-144.47;86.35
64076;BME280;50327;51.328;12.324;2023-03-13T10:43:19;52850.13;;;-144.47;86.14
64076;BME280;50327;51.328;12.324;2023-03-13T10:45:45;52844.19;;;-144.47;86.07
64076;BME280;50327;51.328;12.324;2023-03-13T10:48:18;52860.06;;;-144.47;85.97
64076;BME280;50327;51.328;12.324;2023-03-13T10:50:50;52828.28;;;-144.47;85.70
64076;BME280;50327;51.328;12.324;2023-03-13T10:55:47;52832.25;;;-144.47;86.06
64076;BME280;50327;51.328;12.324;2023-03-13T10:58:23;52800.47;;;-144.47;86.31
64076;BME280;50327;51.328;12.324;2023-03-13T11:01:08;52836.22;;;-144.47;86.25
64076;BME280;50327;51.328;12.324;2023-03-13T11:03:34;52806.44;;;-144.47;86.33
64076;BME280;50327;51.328;12.324;2023-03-13T11:06:02;52848.16;;;-144.47;85.68
64076;BME280;50327;51.328;12.324;2023-03-13T11:08:36;52822.31;;;-144.47;84.64
64076;BME280;50327;51.328;12.324;2023-03-13T11:11:16;52828.28;;;-144.47;84.35
64076;BME280;50327;51.328;12.324;2023-03-13T11:13:44;52802.47;;;-144.47;83.65
64076;BME280;50327;51.328;12.324;2023-03-13T11:16:21;52850.13;;;-144.47;82.91
64076;BME280;50327;51.328;12.324;2023-03-13T11:21:22;52828.28;;;-144.47;81.68
64076;BME280;50327;51.328;12.324;2023-03-13T11:23:53;52822.31;;;-144.47;81.05
64076;BME280;50327;51.328;12.324;2023-03-13T11:31:41;52818.34;;;-144.47;77.89
64076;BME280;50327;51.328;12.324;2023-03-13T11:34:20;52792.53;;;-144.47;77.77
64076;BME280;50327;51.328;12.324;2023-03-13T11:37:01;52794.53;;;-144.47;77.34
64076;BME280;50327;51.328;12.324;2023-03-13T11:42:34;52818.34;;;-144.47;76.83
64076;BME280;50327;51.328;12.324;2023-03-13T11:51:09;52792.53;;;-144.47;76.99
64076;BME280;50327;51.328;12.324;2023-03-13T11:56:14;52804.44;;;-144.47;74.94
64076;BME280;50327;51.328;12.324;2023-03-13T12:01:30;52806.44;;;-144.47;73.42
64076;BME280;50327;51.328;12.324;2023-03-13T12:04:11;52790.56;;;-144.47;72.74
64076;BME280;50327;51.328;12.324;2023-03-13T12:06:46;52808.44;;;-144.47;71.26
64076;BME280;50327;51.328;12.324;2023-03-13T12:09:19;52802.47;;;-144.47;70.54
64076;BME280;50327;51.328;12.324;2023-03-13T12:11:52;52802.47;;;-144.47;70.30
64076;BME280;50327;51.328;12.324;2023-03-13T12:14:29;52804.44;;;-144.47;71.11
64076;BME280;50327;51.328;12.324;2023-03-13T12:17:12;52792.53;;;-144.47;72.13
64076;BME280;50327;51.328;12.324;2023-03-13T12:19:54;52812.41;;;-144.47;72.35
64076;BME280;50327;51.328;12.324;2023-03-13T12:22:30;52788.56;;;-144.47;73.12
64076;BME280;50327;51.328;12.324;2023-03-13T12:25:04;52786.56;;;-144.47;74.04
64076;BME280;50327;51.328;12.324;2023-03-13T12:27:34;52766.72;;;-144.47;74.34
64076;BME280;50327;51.328;12.324;2023-03-13T12:30:04;52806.44;;;-144.47;74.63
64076;BME280;50327;51.328;12.324;2023-03-13T12:33:02;52814.38;;;-144.47;74.76
64076;BME280;50327;51.328;12.324;2023-03-13T12:35:35;52822.31;;;-144.47;74.49
64076;BME280;50327;51.328;12.324;2023-03-13T12:38:16;52806.44;;;-144.47;74.32
64076;BME280;50327;51.328;12.324;2023-03-13T12:41:00;52808.44;;;-144.47;74.32
64076;BME280;50327;51.328;12.324;2023-03-13T12:43:31;52806.44;;;-144.47;74.37
64076;BME280;50327;51.328;12.324;2023-03-13T12:48:45;52824.31;;;-144.47;75.11
64076;BME280;50327;51.328;12.324;2023-03-13T12:59:33;52816.38;;;-144.47;75.73
64076;BME280;50327;51.328;12.324;2023-03-13T13:02:01;52804.44;;;-144.47;75.24
64076;BME280;50327;51.328;12.324;2023-03-13T13:04:32;52808.44;;;-144.47;74.94
64076;BME280;50327;51.328;12.324;2023-03-13T13:07:17;52784.59;;;-144.47;74.95
64076;BME280;50327;51.328;12.324;2023-03-13T13:12:29;52794.53;;;-144.47;75.46
64076;BME280;50327;51.328;12.324;2023-03-13T13:15:00;52814.38;;;-144.47;75.24
64076;BME280;50327;51.328;12.324;2023-03-13T13:20:47;52800.47;;;-144.47;74.61
64076;BME280;50327;51.328;12.324;2023-03-13T13:23:29;52796.50;;;-144.47;73.75
64076;BME280;50327;51.328;12.324;2023-03-13T13:28:59;52796.50;;;-144.47;71.88
64076;BME280;50327;51.328;12.324;2023-03-13T13:31:44;52808.44;;;-144.47;71.38
64076;BME280;50327;51.328;12.324;2023-03-13T13:36:53;52798.50;;;-144.47;71.72
64076;BME280;50327;51.328;12.324;2023-03-13T13:41:57;52804.44;;;-144.47;72.28
64076;BME280;50327;51.328;12.324;2023-03-13T13:44:25;52816.38;;;-144.47;72.60
64076;BME280;50327;51.328;12.324;2023-03-13T13:46:51;52786.56;;;-144.47;72.81